Time;durP1;ratioP1;P1;durP2;ratioP2;P2;SDS_P1;SDS_P2;PMS_P1;PMS_P2;Temp;Humidity;BMP_temperature;BMP_pressure;BME280_temperature;BME280_humidity;BME280_pressure;Samples;Min_cycle;Max_cycle;Signal;HPM_P1;HPM_P2
2023/02/28 00:01:20;;;;;;;8.73;6.95;;;;;;;-5.40;77.41;145997.97;5082700;28;20025;-64
2023/02/28 00:03:46;;;;;;;9.27;7.03;;;;;;;-5.46;77.70;145984.03;5082349;28;20036;-65
2023/02/28 00:06:12;;;;;;;9.45;7.30;;;;;;;-5.58;78.64;145953.72;5082340;28;20127;-64
2023/02/28 00:08:38;;;;;;;9.68;7.47;;;;;;;-5.76;79.25;145910.72;5064813;28;20020;-64
2023/02/28 00:11:11;;;;;;;10.77;6.97;;;;;;;-5.54;79.16;145963.84;5074795;28;20193;-63
2023/02/28 00:13:39;;;;;;;9.77;7.15;;;;;;;-5.49;78.63;145976.47;5064657;28;20091;-64
2023/02/28 00:16:07;;;;;;;9.13;6.80;;;;;;;-5.47;78.72;145981.53;5057945;28;20044;-63
2023/02/28 00:18:33;;;;;;;10.35;6.82;;;;;;;-5.47;77.66;145980.25;5064138;28;20020;-65
2023/02/28 00:20:59;;;;;;;9.18;6.82;;;;;;;-5.40;77.19;145999.25;5088104;28;20054;-63
2023/02/28 00:23:26;;;;;;;8.32;6.45;;;;;;;-5.42;77.84;145994.16;5071570;28;20265;-64
2023/02/28 00:25:52;;;;;;;10.15;6.95;;;;;;;-5.48;77.62;145979.00;5082099;28;20032;-64
2023/02/28 00:28:18;;;;;;;8.90;6.43;;;;;;;-5.37;76.47;146005.59;5086483;28;20031;-64
2023/02/28 00:30:44;;;;;;;9.05;6.18;;;;;;;-5.75;76.82;145913.22;5082249;28;20024;-64
2023/02/28 00:33:09;;;;;;;9.95;6.65;;;;;;;-5.45;77.11;145986.59;5087501;28;20058;-64
2023/02/28 00:35:35;;;;;;;8.73;5.90;;;;;;;-5.44;77.59;145987.88;5078777;28;20193;-63
2023/02/28 00:38:01;;;;;;;8.68;6.78;;;;;;;-5.57;77.34;145957.50;5082008;28;20225;-63
2023/02/28 00:40:27;;;;;;;8.18;6.40;;;;;;;-5.48;77.42;145977.75;5072712;28;20028;-63
2023/02/28 00:42:52;;;;;;;7.95;6.22;;;;;;;-5.49;77.49;145976.47;5082008;28;20020;-63
2023/02/28 00:45:18;;;;;;;9.63;6.30;;;;;;;-5.42;78.65;145994.16;5082023;28;20024;-64
2023/02/28 00:47:46;;;;;;;8.38;6.55;;;;;;;-5.50;76.81;145973.97;5087598;28;20039;-64
2023/02/28 00:50:12;;;;;;;9.00;7.00;;;;;;;-5.64;77.66;145938.50;5081859;28;20028;-63
2023/02/28 00:52:37;;;;;;;8.23;6.90;;;;;;;-5.52;78.25;145968.88;5087791;28;20020;-63
2023/02/28 00:55:03;;;;;;;9.02;7.18;;;;;;;-5.50;78.09;145973.97;5064022;28;20023;-63
2023/02/28 00:57:29;;;;;;;9.80;7.30;;;;;;;-5.61;76.51;145947.38;5082071;28;20024;-62
2023/02/28 00:59:54;;;;;;;8.57;6.32;;;;;;;-5.62;77.92;145943.59;5070116;28;20051;-63
2023/02/28 01:02:22;;;;;;;8.82;6.40;;;;;;;-5.63;78.40;145941.03;5096535;28;20346;-64
2023/02/28 01:04:47;;;;;;;9.25;6.93;;;;;;;-5.68;76.98;145929.66;5083166;28;20024;-64
2023/02/28 01:07:14;;;;;;;12.38;7.43;;;;;;;-5.85;78.33;145886.69;5081342;28;20295;-64
2023/02/28 01:09:40;;;;;;;8.88;6.50;;;;;;;-5.72;77.07;145919.53;5081477;28;20066;-63
2023/02/28 01:12:07;;;;;;;8.80;7.05;;;;;;;-6.01;78.74;145847.50;5086402;28;20031;-63
2023/02/28 01:14:34;;;;;;;9.88;7.20;;;;;;;-5.94;77.45;145866.44;5081917;28;20375;-62
2023/02/28 01:16:59;;;;;;;9.20;7.03;;;;;;;-5.99;77.12;145853.81;5088651;28;20317;-63
2023/02/28 01:19:25;;;;;;;10.02;7.53;;;;;;;-6.03;77.33;145842.44;5081735;28;20028;-62
2023/02/28 01:21:51;;;;;;;11.10;7.18;;;;;;;-5.97;78.34;145857.63;5081756;28;20234;-64
2023/02/28 01:24:16;;;;;;;10.35;7.30;;;;;;;-6.10;78.27;145827.28;5087975;28;20024;-64
2023/02/28 01:26:42;;;;;;;9.55;7.03;;;;;;;-6.15;78.54;145814.63;5063564;28;20024;-64
2023/02/28 01:29:07;;;;;;;9.57;6.38;;;;;;;-6.06;78.59;145836.13;5079488;28;20047;-64
2023/02/28 01:31:33;;;;;;;8.13;6.25;;;;;;;-6.23;78.18;145794.38;5085655;28;20028;-64
2023/02/28 01:33:59;;;;;;;9.07;6.30;;;;;;;-6.25;78.43;145789.34;5085406;28;20036;-63
2023/02/28 01:36:25;;;;;;;9.68;6.18;;;;;;;-6.25;77.67;145790.59;5085521;28;20059;-62
2023/02/28 01:38:51;;;;;;;9.60;6.85;;;;;;;-6.47;78.78;145734.97;5085415;28;20028;-63
2023/02/28 01:41:29;;;;;;;9.23;6.90;;;;;;;-6.37;78.48;145759.00;5092010;28;20017;-63
2023/02/28 01:44:06;;;;;;;9.85;6.25;;;;;;;-6.44;79.16;145742.56;5080471;28;20033;-64
2023/02/28 01:46:34;;;;;;;7.40;5.90;;;;;;;-6.54;77.88;145718.59;5085185;28;20028;-63
2023/02/28 01:49:09;;;;;;;7.70;6.38;;;;;;;-6.36;78.52;145761.53;5085892;28;20044;-63
2023/02/28 01:51:52;;;;;;;9.10;6.82;;;;;;;-6.30;79.27;145776.69;5099825;28;20043;-63
2023/02/28 01:54:24;;;;;;;6.95;5.93;;;;;;;-6.39;79.14;145753.97;5086163;28;20213;-63
2023/02/28 01:56:56;;;;;;;6.95;5.68;;;;;;;-6.21;77.66;145798.19;5086033;28;20051;-63
2023/02/28 01:59:29;;;;;;;7.57;5.80;;;;;;;-6.35;77.37;145764.09;5094943;28;20020;-64
2023/02/28 02:01:55;;;;;;;8.18;6.22;;;;;;;-6.36;78.06;145762.78;5085995;28;20238;-63
2023/02/28 02:04:25;;;;;;;8.50;6.20;;;;;;;-6.26;78.45;145788.06;5085232;28;20100;-63
2023/02/28 02:06:52;;;;;;;7.40;6.20;;;;;;;-6.29;77.41;145780.50;5085274;28;20025;-64
2023/02/28 02:09:17;;;;;;;7.70;6.03;;;;;;;-6.29;78.52;145779.25;5084464;28;20024;-64
2023/02/28 02:11:46;;;;;;;7.75;6.50;;;;;;;-6.42;78.64;145748.88;5089599;28;20321;-64
2023/02/28 02:14:20;;;;;;;8.57;5.78;;;;;;;-6.34;77.49;145766.59;5080806;28;20032;-63
2023/02/28 02:17:04;;;;;;;7.68;5.88;;;;;;;-6.29;78.82;145779.25;5092952;28;20077;-64
2023/02/28 02:19:32;;;;;;;9.10;6.53;;;;;;;-6.16;77.79;145812.09;5066177;28;20016;-64
2023/02/28 02:22:40;;;;;;;7.70;6.18;;;;;;;-6.23;78.25;145793.16;5071733;28;20032;-63
2023/02/28 02:25:39;;;;;;;6.63;5.22;;;;;;;-6.23;78.66;145794.38;5045871;28;20040;-64
2023/02/28 02:28:23;;;;;;;8.18;5.63;;;;;;;-6.50;78.28;145728.69;5072530;28;20193;-63
2023/02/28 02:31:13;;;;;;;7.72;6.00;;;;;;;-6.46;78.63;145738.78;5084323;28;20107;-63
2023/02/28 02:34:18;;;;;;;6.43;5.55;;;;;;;-6.40;77.53;145751.44;5068591;28;20243;-64
2023/02/28 02:37:14;;;;;;;7.35;5.90;;;;;;;-6.44;79.02;145742.56;5040239;28;20047;-63
2023/02/28 02:40:19;;;;;;;6.80;5.78;;;;;;;-6.57;78.35;145710.97;5067085;28;20205;-62
2023/02/28 02:42:47;;;;;;;7.57;5.72;;;;;;;-6.36;79.27;145762.78;5084190;28;20062;-63
2023/02/28 02:45:35;;;;;;;8.70;5.78;;;;;;;-6.34;78.14;145767.88;5083479;28;20321;-64
2023/02/28 02:48:04;;;;;;;8.40;5.85;;;;;;;-6.50;78.07;145727.41;5070714;28;20075;-64
2023/02/28 02:50:38;;;;;;;6.18;4.97;;;;;;;-6.50;77.95;145728.69;5088066;28;20103;-64
2023/02/28 02:53:05;;;;;;;6.28;5.35;;;;;;;-6.53;77.89;145719.84;5084022;28;20032;-64
2023/02/28 02:55:37;;;;;;;6.82;5.53;;;;;;;-6.43;78.45;145745.09;5088356;28;20091;-64
2023/02/28 02:58:04;;;;;;;;;;;;;;;-6.22;78.68;145796.94;5084449;28;20028;-64
2023/02/28 03:00:35;;;;;;;7.78;5.18;;;;;;;-6.26;77.71;145788.06;5084122;28;19975;-64
2023/02/28 03:03:02;;;;;;;7.45;5.50;;;;;;;-6.37;77.99;145759.00;5072159;28;20047;-65
2023/02/28 03:05:39;;;;;;;7.43;6.18;;;;;;;-6.38;78.29;145756.47;5083772;28;20024;-63
2023/02/28 03:08:05;;;;;;;9.27;5.90;;;;;;;-6.22;77.80;145796.94;5088791;28;20029;-63
2023/02/28 03:10:39;;;;;;;11.13;6.75;;;;;;;-6.52;78.83;145723.63;5083803;28;20020;-62
2023/02/28 03:13:26;;;;;;;8.13;6.15;;;;;;;-6.28;79.06;145781.78;5086049;28;20065;-63
2023/02/28 03:16:04;;;;;;;9.52;7.13;;;;;;;-6.43;78.71;145745.09;5068904;28;20036;-63
2023/02/28 03:18:52;;;;;;;11.50;6.85;;;;;;;-6.42;77.69;145747.63;5065867;28;20033;-62
2023/02/28 03:21:28;;;;;;;11.25;7.45;;;;;;;-6.26;77.29;145788.06;5083490;28;20074;-63
2023/02/28 03:24:18;;;;;;;10.35;7.70;;;;;;;-6.30;77.89;145778.00;5083088;28;20032;-62
2023/02/28 03:26:53;;;;;;;9.43;6.95;;;;;;;-6.47;77.24;145736.28;5083799;28;20087;-62
2023/02/28 03:29:38;;;;;;;9.05;7.22;;;;;;;-6.31;77.16;145774.22;5083721;28;20024;-62
2023/02/28 03:32:14;;;;;;;8.52;6.63;;;;;;;-6.39;78.45;145753.97;5079162;28;20028;-64
2023/02/28 03:34:48;;;;;;;9.73;6.80;;;;;;;-6.42;77.38;145748.88;5082706;28;20056;-65
2023/02/28 03:37:22;;;;;;;9.73;7.30;;;;;;;-6.37;76.78;145760.28;5082169;28;20244;-63
2023/02/28 03:39:53;;;;;;;10.93;7.60;;;;;;;-6.32;77.49;145771.66;5084581;28;20024;-64
2023/02/28 03:42:20;;;;;;;;;;;;;;;-6.30;77.66;145776.69;5084032;28;20054;-65
2023/02/28 03:44:50;;;;;;;9.90;6.43;;;;;;;-6.20;76.87;145801.97;5086835;28;19911;-65
2023/02/28 03:47:28;;;;;;;8.98;6.70;;;;;;;-6.40;76.71;145752.66;5083135;28;20068;-64
2023/02/28 03:50:06;;;;;;;8.55;6.70;;;;;;;-6.21;76.15;145799.47;5089660;28;20136;-65
2023/02/28 03:52:38;;;;;;;10.27;7.10;;;;;;;-6.21;76.17;145798.19;5082762;28;20028;-64
2023/02/28 03:55:07;;;;;;;;;;;;;;;-6.33;75.75;145770.38;5079164;28;20317;-63
2023/02/28 03:57:41;;;;;;;8.77;6.30;;;;;;;-6.34;77.34;145766.59;5083204;28;19971;-64
2023/02/28 04:00:18;;;;;;;10.02;7.15;;;;;;;-6.42;76.68;145747.63;5083034;28;20307;-62
2023/02/28 04:02:44;;;;;;;8.18;6.50;;;;;;;-6.25;77.08;145789.34;5069656;28;20086;-64
2023/02/28 04:05:10;;;;;;;9.35;6.85;;;;;;;-6.25;75.74;145790.59;5065168;28;20328;-63
2023/02/28 04:07:36;;;;;;;10.60;6.57;;;;;;;-6.27;75.82;145784.28;5086619;28;20028;-63
2023/02/28 04:10:03;;;;;;;9.40;6.50;;;;;;;-6.36;75.64;145761.53;5084410;28;20048;-62
2023/02/28 04:12:29;;;;;;;7.60;6.10;;;;;;;-6.43;75.91;145745.09;5085508;28;20065;-63
2023/02/28 04:14:55;;;;;;;10.25;7.72;;;;;;;-6.21;76.37;145799.47;5091388;28;20024;-63
2023/02/28 04:17:20;;;;;;;6.78;5.18;;;;;;;-6.38;75.35;145757.75;5082795;28;20035;-62
2023/02/28 04:19:46;;;;;;;7.18;5.47;;;;;;;-6.39;76.23;145753.97;5082483;28;20209;-62
2023/02/28 04:22:11;;;;;;;7.25;5.97;;;;;;;-6.35;76.43;145764.09;5094050;28;20074;-62
2023/02/28 04:24:41;;;;;;;7.50;5.18;;;;;;;-6.29;75.58;145779.25;5082212;28;20321;-63
2023/02/28 04:27:08;;;;;;;6.93;5.55;;;;;;;-6.49;75.31;145731.19;5082371;28;20020;-63
2023/02/28 04:29:33;;;;;;;6.63;5.18;;;;;;;-6.27;75.18;145785.56;5082983;28;20066;-63
2023/02/28 04:32:00;;;;;;;8.00;5.53;;;;;;;-6.28;76.14;145781.78;5082216;28;20193;-62
2023/02/28 04:34:27;;;;;;;6.30;4.50;;;;;;;-6.36;75.04;145761.53;5071321;28;20075;-63
2023/02/28 04:36:54;;;;;;;7.05;5.13;;;;;;;-6.30;73.47;145776.69;5061493;28;20261;-63
2023/02/28 04:39:24;;;;;;;6.85;5.15;;;;;;;-6.26;75.08;145788.06;5073651;28;20089;-62
2023/02/28 04:41:50;;;;;;;4.90;4.03;;;;;;;-6.27;74.59;145785.56;5083997;28;20327;-61
2023/02/28 04:44:16;;;;;;;9.43;5.57;;;;;;;-6.14;74.43;145815.88;5092610;28;20096;-63
2023/02/28 04:46:42;;;;;;;5.45;4.45;;;;;;;-6.10;73.28;145826.00;5082105;28;20033;-62
2023/02/28 04:49:10;;;;;;;6.20;4.68;;;;;;;-6.25;73.57;145790.59;5082210;28;20032;-62
2023/02/28 04:51:36;;;;;;;6.22;4.40;;;;;;;-6.21;72.60;145799.47;5091440;28;20308;-62
2023/02/28 04:54:01;;;;;;;5.22;4.22;;;;;;;-6.22;73.52;145796.94;5097677;28;20043;-62
2023/02/28 04:56:27;;;;;;;6.05;4.13;;;;;;;-6.17;72.29;145808.31;5066714;28;20052;-64
2023/02/28 04:58:53;;;;;;;6.63;4.07;;;;;;;-6.27;73.74;145785.56;5088535;28;20240;-66
2023/02/28 05:01:29;;;;;;;6.63;4.70;;;;;;;-6.14;72.68;145815.88;5082247;28;20029;-64
2023/02/28 05:03:57;;;;;;;7.10;4.57;;;;;;;-6.40;73.57;145751.44;5077208;28;20047;-64
2023/02/28 05:06:25;;;;;;;6.07;4.43;;;;;;;-6.17;72.71;145808.31;5097811;28;20023;-63
2023/02/28 05:08:52;;;;;;;5.60;4.50;;;;;;;-6.05;72.01;145837.41;5081293;28;20024;-62
2023/02/28 05:11:20;;;;;;;5.18;4.20;;;;;;;-5.98;72.69;145856.38;5084764;28;20078;-63
2023/02/28 05:13:47;;;;;;;5.75;4.00;;;;;;;-6.08;70.81;145831.09;5082181;28;20055;-63
2023/02/28 05:16:13;;;;;;;6.40;3.70;;;;;;;-6.09;70.57;145829.78;5067854;28;20028;-62
2023/02/28 05:18:39;;;;;;;7.55;5.32;;;;;;;-5.94;71.54;145865.19;5081813;28;20046;-62
2023/02/28 05:21:05;;;;;;;6.65;4.25;;;;;;;-5.86;70.60;145885.38;5093781;28;20024;-61
2023/02/28 05:23:31;;;;;;;5.55;4.18;;;;;;;-5.97;70.27;145857.63;5085487;28;20031;-62
2023/02/28 05:25:57;;;;;;;6.82;4.93;;;;;;;-5.90;69.36;145876.56;5081008;28;20033;-62
2023/02/28 05:28:22;;;;;;;4.63;3.50;;;;;;;-5.76;70.97;145909.41;5085723;28;20353;-64
2023/02/28 05:30:48;;;;;;;5.50;4.18;;;;;;;-5.79;69.28;145901.84;5081071;28;20025;-62
2023/02/28 05:33:14;;;;;;;4.85;3.90;;;;;;;-5.64;70.25;145939.78;5076415;28;20033;-61
2023/02/28 05:35:42;;;;;;;6.45;3.70;;;;;;;-5.58;68.31;145954.97;5076904;28;20074;-62
2023/02/28 05:38:08;;;;;;;6.55;4.65;;;;;;;-5.50;67.34;145972.66;5081516;28;20021;-62
2023/02/28 05:40:34;;;;;;;7.80;3.90;;;;;;;-5.71;68.12;145922.09;5086014;28;20054;-62
2023/02/28 05:43:00;;;;;;;5.65;4.22;;;;;;;-5.60;66.73;145949.91;5059083;28;20215;-62
2023/02/28 05:45:26;;;;;;;5.65;3.80;;;;;;;-5.61;66.99;145946.13;5069145;28;20032;-62
2023/02/28 05:47:55;;;;;;;5.95;4.05;;;;;;;-5.64;67.44;145938.50;5068053;28;20049;-61
2023/02/28 05:50:21;;;;;;;5.70;3.80;;;;;;;-5.66;65.91;145933.47;5077488;28;20063;-62
2023/02/28 05:52:51;;;;;;;6.88;4.20;;;;;;;-5.46;66.91;145982.78;5082988;28;20077;-61
2023/02/28 05:55:16;;;;;;;6.07;4.78;;;;;;;-5.47;67.82;145980.25;5073315;28;20087;-61
2023/02/28 05:57:42;;;;;;;5.28;3.90;;;;;;;-5.42;66.65;145994.16;5081196;28;20063;-61
2023/02/28 06:00:09;;;;;;;5.90;4.70;;;;;;;-5.27;66.11;146030.88;5087828;28;20196;-62
2023/02/28 06:02:34;;;;;;;4.07;3.50;;;;;;;-5.21;65.32;146044.81;5081264;28;20028;-61
2023/02/28 06:05:00;;;;;;;5.45;4.20;;;;;;;-5.31;65.81;146019.50;5081024;28;20035;-62
2023/02/28 06:07:25;;;;;;;5.18;3.83;;;;;;;-5.28;65.59;146027.09;5064428;28;20051;-62
2023/02/28 06:09:51;;;;;;;5.38;3.85;;;;;;;-5.22;63.67;146042.25;5081424;28;20062;-63
2023/02/28 06:12:17;;;;;;;4.82;3.55;;;;;;;-5.01;64.99;146092.91;5085307;28;20327;-63
2023/02/28 06:14:42;;;;;;;5.40;4.22;;;;;;;-4.97;64.92;146103.00;5082257;28;20031;-62
2023/02/28 06:17:09;;;;;;;5.80;3.78;;;;;;;-5.10;65.22;146071.34;5091679;28;20024;-62
2023/02/28 06:19:38;;;;;;;64.10;34.30;;;;;;;-4.94;64.54;146111.88;5084795;28;20032;-62
2023/02/28 06:22:04;;;;;;;6.15;4.13;;;;;;;-4.92;64.52;146116.91;5086619;28;20048;-63
2023/02/28 06:24:31;;;;;;;6.15;4.43;;;;;;;-4.77;63.75;146153.66;5089600;28;20040;-62
2023/02/28 06:26:58;;;;;;;5.00;3.40;;;;;;;-4.81;63.66;146143.53;5084397;28;20048;-62
2023/02/28 06:29:24;;;;;;;6.18;3.90;;;;;;;-4.80;63.95;146144.78;5092237;28;20055;-61
2023/02/28 06:31:50;;;;;;;8.75;4.18;;;;;;;-4.53;64.64;146211.91;5093374;28;20061;-62
2023/02/28 06:34:16;;;;;;;7.15;4.30;;;;;;;-4.32;65.36;146262.53;5091668;28;20048;-62
2023/02/28 06:36:42;;;;;;;8.18;3.97;;;;;;;-4.46;64.53;146229.63;5070539;28;20033;-62
2023/02/28 06:39:09;;;;;;;5.55;4.20;;;;;;;-4.54;65.00;146209.38;5084323;28;20107;-61
2023/02/28 06:41:38;;;;;;;6.82;3.45;;;;;;;-4.39;65.16;146247.34;5077848;28;20020;-61
2023/02/28 06:44:15;;;;;;;6.30;3.60;;;;;;;-4.38;65.32;146249.84;5061467;28;20029;-61
2023/02/28 06:46:42;;;;;;;5.78;3.78;;;;;;;-4.30;64.53;146267.59;5086751;28;20036;-62
2023/02/28 06:49:08;;;;;;;6.03;4.43;;;;;;;-4.35;65.58;146256.19;5085299;28;20032;-61
2023/02/28 06:51:35;;;;;;;4.05;3.45;;;;;;;-4.41;65.57;146241.03;5083999;28;20048;-62
2023/02/28 06:54:01;;;;;;;6.72;4.00;;;;;;;-4.27;65.93;146275.22;5073450;28;20329;-61
2023/02/28 06:56:27;;;;;;;5.20;3.67;;;;;;;-4.11;65.38;146315.72;5081395;28;20028;-62
2023/02/28 06:58:52;;;;;;;8.82;4.70;;;;;;;-4.14;65.66;146308.13;5075477;28;20070;-61
2023/02/28 07:01:19;;;;;;;4.55;3.80;;;;;;;-3.97;66.65;146348.69;5083943;28;20043;-62
2023/02/28 07:03:45;;;;;;;4.65;3.90;;;;;;;-4.23;66.57;146286.63;5083584;28;20032;-62
2023/02/28 07:06:11;;;;;;;5.25;3.70;;;;;;;-4.01;66.69;146339.81;5093775;28;20025;-63
2023/02/28 07:08:37;;;;;;;5.55;3.80;;;;;;;-3.94;65.88;146356.28;5085131;28;20035;-63
2023/02/28 07:11:04;;;;;;;5.88;4.28;;;;;;;-3.96;66.99;146352.50;5086779;28;20024;-61
2023/02/28 07:13:30;;;;;;;5.35;4.15;;;;;;;-3.82;66.84;146386.66;5085346;28;20320;-63
2023/02/28 07:15:56;;;;;;;4.47;3.47;;;;;;;-3.68;67.79;146422.19;5083581;28;20082;-62
2023/02/28 07:18:22;;;;;;;7.07;4.15;;;;;;;-3.85;68.47;146380.38;5062333;28;20052;-62
2023/02/28 07:20:47;;;;;;;7.65;4.10;;;;;;;-3.75;68.91;146404.41;5084721;28;20028;-62
2023/02/28 07:23:13;;;;;;;6.38;4.00;;;;;;;-3.60;68.29;146439.94;5091257;28;20020;-63
2023/02/28 07:25:39;;;;;;;4.53;3.55;;;;;;;-3.66;68.75;146427.22;5083027;28;20021;-62
2023/02/28 07:28:04;;;;;;;5.00;3.63;;;;;;;-3.60;68.91;146439.94;5085318;28;20058;-62
2023/02/28 07:30:30;;;;;;;5.57;3.60;;;;;;;-3.51;69.37;146462.72;5091510;28;20366;-61
2023/02/28 07:32:55;;;;;;;8.23;4.13;;;;;;;-3.45;69.71;146476.66;5083003;28;20040;-62
2023/02/28 07:35:22;;;;;;;3.85;3.17;;;;;;;-3.30;69.18;146514.69;5094566;28;20120;-62
2023/02/28 07:37:48;;;;;;;6.40;4.38;;;;;;;-3.34;69.80;146505.78;5085875;28;20025;-62
2023/02/28 07:40:14;;;;;;;5.75;4.30;;;;;;;-3.31;69.86;146513.44;5068409;28;20078;-62
2023/02/28 07:42:41;;;;;;;4.97;4.07;;;;;;;-3.34;69.95;146504.53;5075921;28;20052;-63
2023/02/28 07:45:11;;;;;;;4.25;3.30;;;;;;;-3.27;69.55;146522.28;5085740;28;20024;-62
2023/02/28 07:47:40;;;;;;;6.05;4.07;;;;;;;-3.36;70.36;146500.75;5085072;28;20473;-62
2023/02/28 07:50:08;;;;;;;6.70;4.25;;;;;;;-3.16;70.48;146550.19;5096055;28;20114;-63
2023/02/28 07:52:34;;;;;;;7.20;4.22;;;;;;;-3.28;70.61;146518.50;5079600;28;20074;-62
2023/02/28 07:55:00;;;;;;;5.93;3.65;;;;;;;-3.37;71.50;146498.19;5088425;28;20032;-61
2023/02/28 07:57:25;;;;;;;8.10;4.18;;;;;;;-3.22;71.74;146533.69;5085075;28;20020;-63
2023/02/28 07:59:51;;;;;;;6.85;4.32;;;;;;;-3.03;71.41;146580.63;5061195;28;20032;-62
2023/02/28 08:02:18;;;;;;;6.32;4.43;;;;;;;-2.94;70.72;146603.41;5070365;28;20112;-61
2023/02/28 08:04:43;;;;;;;7.90;4.38;;;;;;;-2.93;71.38;146605.97;5090437;28;20024;-63
2023/02/28 08:07:12;;;;;;;6.05;4.00;;;;;;;-2.90;71.28;146612.31;5090984;28;20039;-62
2023/02/28 08:09:39;;;;;;;6.57;4.22;;;;;;;-2.85;71.01;146624.97;5083606;28;20024;-62
2023/02/28 08:12:07;;;;;;;7.65;4.18;;;;;;;-2.80;70.37;146637.69;5087488;28;20043;-63
2023/02/28 08:14:33;;;;;;;8.35;4.85;;;;;;;-2.68;71.37;146666.84;5087248;28;20024;-63
2023/02/28 08:16:58;;;;;;;6.68;4.43;;;;;;;-2.64;70.84;146678.28;5092176;28;20035;-61
2023/02/28 08:19:24;;;;;;;7.00;4.75;;;;;;;-2.70;71.01;146661.78;5084229;28;20024;-63
2023/02/28 08:21:49;;;;;;;6.00;3.90;;;;;;;-2.80;70.72;146637.69;5080455;28;20032;-62
2023/02/28 08:24:15;;;;;;;4.50;3.88;;;;;;;-2.84;71.52;146628.78;5067603;28;20036;-62
2023/02/28 08:26:40;;;;;;;7.88;4.20;;;;;;;-2.70;71.62;146663.03;5084516;28;20100;-61
2023/02/28 08:29:06;;;;;;;6.32;4.20;;;;;;;-2.65;71.27;146674.44;5065400;28;20095;-62
2023/02/28 08:31:32;;;;;;;5.70;4.07;;;;;;;-2.48;71.13;146716.28;5086760;28;20028;-62
2023/02/28 08:33:59;;;;;;;5.93;4.07;;;;;;;-2.68;72.27;146668.13;5078291;28;20074;-63
2023/02/28 08:36:26;;;;;;;8.85;4.05;;;;;;;-2.64;71.40;146678.28;5081337;28;20056;-61
2023/02/28 08:38:52;;;;;;;5.55;4.03;;;;;;;-2.40;71.96;146736.59;5050587;28;20036;-62
2023/02/28 08:41:17;;;;;;;6.78;4.32;;;;;;;-2.56;72.34;146697.28;5073490;28;20371;-62
2023/02/28 08:43:43;;;;;;;5.65;4.13;;;;;;;-2.41;71.85;146734.06;5085919;28;20043;-63
2023/02/28 08:46:12;;;;;;;7.15;4.50;;;;;;;-2.47;73.11;146718.84;5082071;28;20189;-62
2023/02/28 08:48:37;;;;;;;6.28;4.32;;;;;;;-2.61;73.26;146684.59;5063991;28;20075;-62
2023/02/28 08:51:07;;;;;;;5.80;4.65;;;;;;;-2.63;74.20;146680.78;5083615;28;20059;-62
2023/02/28 08:53:32;;;;;;;6.03;4.13;;;;;;;-2.50;74.78;146712.50;5082651;28;20313;-62
2023/02/28 08:56:13;;;;;;;7.22;4.32;;;;;;;-3.09;74.70;146565.38;5091057;28;20040;-62
2023/02/28 08:58:39;;;;;;;6.22;4.28;;;;;;;-2.87;74.63;146619.91;5081719;28;20066;-62
2023/02/28 09:01:12;;;;;;;6.05;4.15;;;;;;;-2.88;74.51;146617.38;5080846;28;20044;-64
2023/02/28 09:03:38;;;;;;;4.40;3.67;;;;;;;-2.96;74.45;146599.63;5081650;28;20055;-62
2023/02/28 09:06:04;;;;;;;6.20;4.13;;;;;;;-2.91;73.62;146609.78;5088419;28;20037;-62
2023/02/28 09:08:31;;;;;;;6.40;4.20;;;;;;;-2.84;73.79;146627.53;5075447;28;20036;-62
2023/02/28 09:10:57;;;;;;;5.10;4.00;;;;;;;-2.71;73.33;146660.47;5070156;28;20031;-62
2023/02/28 09:13:24;;;;;;;10.80;4.22;;;;;;;-2.67;73.11;146669.38;5086323;28;20301;-62
2023/02/28 09:15:50;;;;;;;6.30;3.90;;;;;;;-2.51;72.87;146708.69;5088634;28;20309;-63
2023/02/28 09:18:17;;;;;;;6.53;4.30;;;;;;;-2.60;73.06;146688.38;5084982;28;20050;-63
2023/02/28 09:20:43;;;;;;;6.53;4.43;;;;;;;-2.48;73.28;146716.28;5095661;28;20328;-62
2023/02/28 09:23:10;;;;;;;5.10;4.35;;;;;;;-2.61;73.56;146685.88;5079706;28;20028;-62
2023/02/28 09:25:37;;;;;;;7.47;3.95;;;;;;;-2.47;74.01;146718.84;5077210;28;20040;-63
2023/02/28 09:28:03;;;;;;;6.43;4.32;;;;;;;-2.26;73.67;146772.13;5079782;28;20043;-61
2023/02/28 09:30:30;;;;;;;5.65;4.30;;;;;;;-2.18;72.26;146789.88;5078977;28;20029;-62
2023/02/28 09:32:56;;;;;;;6.53;4.00;;;;;;;-2.33;73.06;146753.13;5094788;28;20028;-62
2023/02/28 09:35:23;;;;;;;7.03;3.92;;;;;;;-2.19;72.93;146787.38;5086499;28;20033;-61
2023/02/28 09:37:52;;;;;;;6.57;4.20;;;;;;;-2.31;72.70;146758.16;5070238;28;20086;-63
2023/02/28 09:40:20;;;;;;;5.88;4.18;;;;;;;-2.37;73.27;146742.97;5070437;28;20281;-63
2023/02/28 09:42:49;;;;;;;7.22;4.18;;;;;;;-2.46;73.46;146722.66;5081085;28;20122;-62
2023/02/28 09:45:23;;;;;;;7.32;4.15;;;;;;;-2.24;73.43;146774.69;5081554;28;20396;-62
2023/02/28 09:47:54;;;;;;;6.65;4.05;;;;;;;-2.28;73.20;146767.06;5080552;28;20055;-62
2023/02/28 09:50:35;;;;;;;5.53;3.90;;;;;;;-2.21;72.97;146782.28;5075969;28;20237;-62
2023/02/28 09:53:10;;;;;;;7.22;4.47;;;;;;;-2.45;74.27;146725.19;5083096;28;20047;-62
2023/02/28 09:55:48;;;;;;;6.88;4.53;;;;;;;-2.25;73.76;146773.44;5092623;28;20036;-63
2023/02/28 09:58:30;;;;;;;6.65;4.40;;;;;;;-2.20;74.78;146786.09;5090581;28;20197;-62
2023/02/28 10:01:19;;;;;;;6.95;4.15;;;;;;;-2.14;74.24;146800.03;5073847;28;20332;-63
2023/02/28 10:03:58;;;;;;;6.22;4.32;;;;;;;-2.14;74.34;146800.03;5065489;28;20044;-63
2023/02/28 10:06:32;;;;;;;6.38;4.13;;;;;;;-2.26;74.36;146770.88;5084797;28;20025;-62
2023/02/28 10:09:24;;;;;;;6.32;4.22;;;;;;;-2.29;74.14;146764.53;5087808;28;20210;-62
2023/02/28 10:11:56;;;;;;;5.07;3.60;;;;;;;-2.18;74.53;146789.88;5070988;28;20032;-62
2023/02/28 10:14:26;;;;;;;8.07;4.10;;;;;;;-2.41;75.04;146734.06;5083759;28;20111;-63
2023/02/28 10:17:17;;;;;;;4.80;3.58;;;;;;;-2.37;74.70;146744.22;5082536;28;20091;-63
2023/02/28 10:19:49;;;;;;;9.02;4.65;;;;;;;-2.04;74.22;146825.41;5077503;28;20297;-63
2023/02/28 10:22:20;;;;;;;7.38;4.35;;;;;;;-2.14;73.85;146801.34;5080090;28;20336;-61
2023/02/28 10:24:51;;;;;;;5.70;4.07;;;;;;;-2.01;74.49;146831.78;5087143;28;20032;-62
2023/02/28 10:27:16;;;;;;;5.03;3.80;;;;;;;-2.12;75.55;146805.16;5063993;28;20052;-62
2023/02/28 10:29:44;;;;;;;4.78;3.63;;;;;;;-2.27;74.93;146769.63;5081203;28;20036;-62
2023/02/28 10:32:15;;;;;;;6.25;3.88;;;;;;;-2.16;74.97;146795.00;5072300;28;20075;-62
2023/02/28 10:34:41;;;;;;;6.57;4.60;;;;;;;-2.18;75.64;146789.88;5087274;28;20050;-61
2023/02/28 10:37:10;;;;;;;6.93;4.20;;;;;;;-2.16;75.14;146795.00;5084781;28;20786;-62
2023/02/28 10:39:45;;;;;;;6.10;4.18;;;;;;;-2.25;75.50;146773.44;5090710;28;20024;-62
2023/02/28 10:42:38;;;;;;;5.53;4.18;;;;;;;-2.14;75.84;146800.03;5075604;28;20036;-62
2023/02/28 10:45:14;;;;;;;5.22;3.90;;;;;;;-2.15;75.80;146798.78;5082278;28;20078;-62
2023/02/28 10:47:58;;;;;;;9.18;5.05;;;;;;;-1.96;75.44;146844.47;5093256;28;20282;-62
2023/02/28 10:50:50;;;;;;;7.88;4.70;;;;;;;-1.95;75.32;146848.28;5056708;28;20071;-64
2023/02/28 10:53:37;;;;;;;5.60;4.60;;;;;;;-1.96;74.75;146844.47;5041782;28;20031;-62
2023/02/28 10:56:07;;;;;;;6.95;4.32;;;;;;;-1.93;75.66;146853.34;5084987;28;20032;-61
2023/02/28 10:58:56;;;;;;;5.15;4.05;;;;;;;-2.04;75.55;146824.16;5089957;28;20032;-63
2023/02/28 11:01:23;;;;;;;6.75;4.05;;;;;;;-2.07;75.85;146817.81;5082455;28;20489;-62
2023/02/28 11:03:50;;;;;;;6.30;4.22;;;;;;;-2.09;75.81;146814.00;5083867;28;20013;-63
2023/02/28 11:06:22;;;;;;;6.22;4.30;;;;;;;-1.88;75.18;146863.50;5093339;28;20028;-63
2023/02/28 11:08:54;;;;;;;5.45;4.30;;;;;;;-2.35;74.92;146749.31;5084938;28;20036;-62
2023/02/28 11:11:22;;;;;;;5.93;3.85;;;;;;;-1.81;74.68;146882.56;5070241;28;20317;-62
2023/02/28 11:13:53;;;;;;;6.00;4.40;;;;;;;-1.95;73.82;146848.28;5083684;28;20073;-62
2023/02/28 11:16:20;;;;;;;8.45;4.82;;;;;;;-1.79;74.40;146886.38;5087769;28;20321;-62
2023/02/28 11:18:55;;;;;;;9.50;4.57;;;;;;;-1.81;74.46;146881.25;5089006;28;20371;-62
2023/02/28 11:21:33;;;;;;;6.55;4.50;;;;;;;-1.94;75.88;146849.53;5085026;28;20032;-62
2023/02/28 11:24:12;;;;;;;5.50;4.25;;;;;;;-1.91;74.36;146858.44;5083581;28;20020;-62
2023/02/28 11:26:41;;;;;;;7.82;4.65;;;;;;;-1.86;75.49;146869.84;5095578;28;20040;-63
2023/02/28 11:29:28;;;;;;;6.88;4.82;;;;;;;-1.91;76.59;146858.44;5085769;28;20020;-62
2023/02/28 11:32:05;;;;;;;7.63;4.45;;;;;;;-1.78;76.72;146888.88;5082091;28;20027;-63
2023/02/28 11:34:32;;;;;;;6.70;4.32;;;;;;;-1.61;76.69;146930.75;5097539;28;20054;-62
2023/02/28 11:37:00;;;;;;;8.13;4.97;;;;;;;-1.72;76.70;146904.13;5087355;28;20032;-62